Time;durP1;ratioP1;P1;durP2;ratioP2;P2;SDS_P1;SDS_P2;PMS_P1;PMS_P2;Temp;Humidity;BMP_temperature;BMP_pressure;BME280_temperature;BME280_humidity;BME280_pressure;Samples;Min_cycle;Max_cycle;Signal;HPM_P1;HPM_P2
2021/01/12 00:02:00;;;;;;;0.10;0.10;;;;;;;-1.79;83.46;101488.46;1813260;78;21108;-49
2021/01/12 00:04:28;;;;;;;1.10;0.68;;;;;;;-1.79;83.36;101491.97;1806489;78;21422;-48
2021/01/12 00:06:55;;;;;;;0.10;0.10;;;;;;;-1.78;82.92;101492.80;1784427;78;21119;-48
2021/01/12 00:09:23;;;;;;;0.10;0.10;;;;;;;-1.78;82.53;101493.66;1810650;78;21130;-49
2021/01/12 00:11:54;;;;;;;0.00;0.00;;;;;;;-1.76;82.12;101492.95;1820821;78;21691;-48
2021/01/12 00:14:33;;;;;;;0.10;0.10;;;;;;;-1.75;81.81;101490.63;1820705;78;21083;-49
2021/01/12 00:17:05;;;;;;;0.00;0.00;;;;;;;-1.72;81.46;101485.94;1820792;78;21582;-48
2021/01/12 00:19:33;;;;;;;0.10;0.10;;;;;;;-1.72;80.79;101485.94;1820333;78;21926;-48
2021/01/12 00:22:01;;;;;;;0.10;0.10;;;;;;;-1.69;80.63;101488.26;1811695;78;21111;-48
2021/01/12 00:24:29;;;;;;;0.10;0.10;;;;;;;-1.69;80.85;101485.58;1790328;78;21136;-48
2021/01/12 00:26:56;;;;;;;0.10;0.10;;;;;;;-1.69;81.07;101486.92;1763927;78;21134;-48
2021/01/12 00:29:23;;;;;;;0.20;0.20;;;;;;;-1.70;81.26;101485.27;1806592;78;21126;-48
2021/01/12 00:31:50;;;;;;;0.00;0.00;;;;;;;-1.72;81.06;101484.08;1783198;78;21156;-48
2021/01/12 00:34:18;;;;;;;0.10;0.10;;;;;;;-1.72;80.88;101492.63;1806757;78;21155;-48
2021/01/12 00:36:52;;;;;;;0.17;0.17;;;;;;;-1.72;80.68;101483.25;1794757;78;21159;-49
2021/01/12 00:39:21;;;;;;;0.20;0.20;;;;;;;-1.74;80.69;101478.89;1806368;79;20941;-48
2021/01/12 00:41:54;;;;;;;3.70;0.42;;;;;;;-1.74;80.60;101481.56;1807231;78;21158;-48
2021/01/12 00:44:26;;;;;;;0.00;0.00;;;;;;;-1.76;80.41;101479.56;1802439;77;21188;-49
2021/01/12 00:46:53;;;;;;;0.63;0.63;;;;;;;-1.74;80.35;101478.89;1780826;79;21148;-48
2021/01/12 00:49:23;;;;;;;0.00;0.00;;;;;;;-1.75;80.28;101479.91;1790805;78;21092;-48
2021/01/12 00:51:51;;;;;;;0.00;0.00;;;;;;;-1.74;80.13;101476.72;1819449;78;21462;-49
2021/01/12 00:54:21;;;;;;;0.10;0.10;;;;;;;-1.75;80.18;101483.09;1820252;78;21201;-48
2021/01/12 00:56:51;;;;;;;0.10;0.10;;;;;;;-1.75;80.17;101478.56;1817144;78;21139;-48
2021/01/12 00:59:18;;;;;;;0.10;0.10;;;;;;;-1.74;80.35;101476.72;1815047;78;21103;-48
2021/01/12 01:01:46;;;;;;;0.13;0.13;;;;;;;-1.74;80.25;101479.40;1821399;78;21135;-49
2021/01/12 01:04:16;;;;;;;0.20;0.20;;;;;;;-1.75;80.19;101481.25;1820355;78;21166;-48
2021/01/12 01:06:44;;;;;;;0.20;0.20;;;;;;;-1.76;80.12;101484.92;1820396;78;21429;-48
2021/01/12 01:09:12;;;;;;;0.00;0.00;;;;;;;-1.76;80.03;101479.56;1820218;78;21159;-48
2021/01/12 01:11:44;;;;;;;0.10;0.10;;;;;;;-1.75;79.94;101485.78;1817652;78;21130;-48
2021/01/12 01:14:11;;;;;;;0.23;0.23;;;;;;;-1.76;79.85;101480.90;1812434;78;21120;-51
2021/01/12 01:16:39;;;;;;;0.00;0.00;;;;;;;-1.76;79.65;101476.88;1805664;79;21179;-51
2021/01/12 01:19:08;;;;;;;0.00;0.00;;;;;;;-1.76;79.83;101484.92;1816871;77;21127;-51
2021/01/12 01:21:35;;;;;;;0.37;0.37;;;;;;;-1.76;79.75;101486.25;1823599;78;21138;-51
2021/01/12 01:24:03;;;;;;;0.00;0.00;;;;;;;-1.76;79.64;101480.90;1802051;78;21132;-51
2021/01/12 01:26:31;;;;;;;0.20;0.20;;;;;;;-1.76;79.50;101483.58;1786349;78;21118;-51
2021/01/12 01:28:58;;;;;;;0.10;0.10;;;;;;;-1.76;79.59;101492.95;1819932;78;21242;-51
2021/01/12 01:31:31;;;;;;;0.10;0.10;;;;;;;-1.77;79.46;101491.30;1820267;78;21126;-51
2021/01/12 01:33:59;;;;;;;0.00;0.00;;;;;;;-1.77;79.22;101487.28;1821808;78;21146;-51
2021/01/12 01:36:26;;;;;;;0.00;0.00;;;;;;;-1.77;78.95;101488.62;1825943;78;21095;-52
2021/01/12 01:38:54;;;;;;;0.42;0.25;;;;;;;-1.77;78.92;101492.64;1825792;78;21656;-51
2021/01/12 01:41:21;;;;;;;0.30;0.30;;;;;;;-1.76;78.91;101487.59;1826207;78;21122;-51
2021/01/12 01:43:48;;;;;;;0.00;0.00;;;;;;;-1.76;78.97;101493.47;1825487;78;21169;-51
2021/01/12 01:46:16;;;;;;;0.00;0.00;;;;;;;-1.77;78.88;101484.59;1826460;78;21154;-51
2021/01/12 01:48:43;;;;;;;0.05;0.05;;;;;;;-1.77;78.87;101483.77;1796859;78;21115;-51
2021/01/12 01:51:11;;;;;;;0.03;0.03;;;;;;;-1.77;78.61;101483.77;1770471;79;21166;-50
2021/01/12 01:53:38;;;;;;;0.10;0.10;;;;;;;-1.77;78.90;101481.92;1824393;78;21078;-51
2021/01/12 01:56:06;;;;;;;1.37;0.50;;;;;;;-1.76;78.81;101481.41;1830176;78;21184;-51
2021/01/12 01:58:39;;;;;;;0.00;0.00;;;;;;;-1.77;78.79;101483.26;1828892;78;21201;-51
2021/01/12 02:01:07;;;;;;;0.60;0.60;;;;;;;-1.77;78.50;101480.58;1819193;78;21115;-50
2021/01/12 02:04:25;;;;;;;0.00;0.00;;;;;;;-1.77;78.28;101476.56;1812948;78;21135;-50
2021/01/12 02:06:53;;;;;;;0.10;0.10;;;;;;;-1.76;78.25;101471.52;1826292;78;21118;-50
2021/01/12 02:09:47;;;;;;;0.40;0.20;;;;;;;-1.77;78.31;101469.86;1826199;78;21151;-51
2021/01/12 02:12:24;;;;;;;0.00;0.00;;;;;;;-1.76;78.34;101474.20;1826201;78;21161;-51
2021/01/12 02:14:51;;;;;;;0.10;0.10;;;;;;;-1.77;78.36;101469.86;1829319;78;21115;-51
2021/01/12 02:17:20;;;;;;;0.35;0.25;;;;;;;-1.76;78.23;101469.34;1830033;78;21114;-51
2021/01/12 02:19:51;;;;;;;0.05;0.05;;;;;;;-1.77;78.15;101471.71;1825965;78;21110;-51
2021/01/12 02:22:20;;;;;;;0.53;0.30;;;;;;;-1.77;78.05;101465.84;1798483;78;21139;-51
2021/01/12 02:24:47;;;;;;;0.00;0.00;;;;;;;-1.78;78.08;101467.34;1797402;79;21171;-48
2021/01/12 02:27:21;;;;;;;0.03;0.03;;;;;;;-1.78;78.01;101462.84;1754421;80;21119;-49
2021/01/12 02:29:50;;;;;;;0.00;0.00;;;;;;;-1.78;77.94;101466.86;1748535;81;21603;-48
2021/01/12 02:32:18;;;;;;;0.20;0.20;;;;;;;-1.79;77.75;101461.16;1754515;81;21182;-48
2021/01/12 02:34:46;;;;;;;0.30;0.30;;;;;;;-1.78;77.56;101457.96;1751365;81;21159;-48
2021/01/12 02:37:16;;;;;;;0.40;0.40;;;;;;;-1.78;77.44;101460.16;1750798;81;21158;-51
2021/01/12 02:39:44;;;;;;;0.00;0.00;;;;;;;-1.78;77.42;101460.16;1751478;81;21497;-51
2021/01/12 02:42:17;;;;;;;0.03;0.03;;;;;;;-1.77;77.31;101466.35;1724045;81;21119;-51
2021/01/12 02:44:45;;;;;;;0.00;0.00;;;;;;;-1.78;77.40;101464.19;1731528;81;21124;-51
2021/01/12 02:47:12;;;;;;;0.33;0.33;;;;;;;-1.78;77.49;101457.48;1764792;80;21143;-51
2021/01/12 02:49:43;;;;;;;0.00;0.00;;;;;;;-1.78;77.39;101461.98;1762213;81;21560;-51
2021/01/12 02:52:13;;;;;;;0.10;0.10;;;;;;;-1.78;77.37;101468.20;1773096;80;21102;-51
2021/01/12 02:54:41;;;;;;;0.28;0.28;;;;;;;-1.77;77.37;101464.50;1755786;80;21095;-51
2021/01/12 02:57:08;;;;;;;0.10;0.10;;;;;;;-1.79;77.37;101459.81;1784842;80;21121;-51
2021/01/12 02:59:35;;;;;;;0.15;0.15;;;;;;;-1.79;77.25;101455.80;1777362;80;21126;-51
2021/01/12 03:02:03;;;;;;;0.10;0.10;;;;;;;-1.78;77.21;101456.14;1785367;80;21580;-51
2021/01/12 03:04:30;;;;;;;0.20;0.20;;;;;;;-1.78;77.19;101456.14;1786579;78;21600;-51
2021/01/12 03:06:59;;;;;;;0.00;0.00;;;;;;;-1.78;77.04;101449.92;1784022;80;21126;-51
2021/01/12 03:09:27;;;;;;;0.00;0.00;;;;;;;-1.79;77.19;101445.08;1786350;80;21122;-51
2021/01/12 03:11:54;;;;;;;0.90;0.90;;;;;;;-1.79;77.27;101439.72;1786124;80;21378;-51
2021/01/12 03:14:22;;;;;;;0.03;0.03;;;;;;;-1.79;77.17;101434.36;1786421;80;21142;-51
2021/01/12 03:16:51;;;;;;;0.00;0.00;;;;;;;-1.81;77.08;101429.67;1785360;80;21441;-51
2021/01/12 03:19:19;;;;;;;0.35;0.35;;;;;;;-1.80;77.11;101438.06;1739831;82;21121;-50
2021/01/12 03:21:46;;;;;;;0.05;0.05;;;;;;;-1.81;77.04;101432.34;1771050;79;21174;-51
2021/01/12 03:24:13;;;;;;;0.10;0.10;;;;;;;-1.81;77.07;101429.67;1725754;82;21341;-51
2021/01/12 03:26:41;;;;;;;0.05;0.05;;;;;;;-1.82;77.05;101429.36;1767356;80;21142;-51
2021/01/12 03:29:09;;;;;;;0.10;0.10;;;;;;;-1.82;76.96;101419.98;1735378;81;21156;-51
2021/01/12 03:31:36;;;;;;;0.08;0.08;;;;;;;-1.83;76.85;101421.00;1747443;80;21442;-51
2021/01/12 03:34:04;;;;;;;0.10;0.10;;;;;;;-1.84;76.76;101418.48;1741021;80;21424;-51
2021/01/12 03:36:31;;;;;;;0.05;0.05;;;;;;;-1.84;76.75;101417.97;1737261;80;21128;-51
2021/01/12 03:38:59;;;;;;;0.37;0.23;;;;;;;-1.85;76.73;101412.30;1734217;81;21533;-51
2021/01/12 03:41:26;;;;;;;0.20;0.20;;;;;;;-1.84;76.75;101407.77;1733392;82;21502;-51
2021/01/12 03:43:53;;;;;;;0.00;0.00;;;;;;;-1.85;76.89;101413.63;1739313;81;21152;-51
2021/01/12 03:46:21;;;;;;;0.30;0.30;;;;;;;-1.85;76.92;101416.31;1746333;82;21133;-50
2021/01/12 03:48:48;;;;;;;0.10;0.10;;;;;;;-1.86;76.98;101410.60;1746428;81;21196;-51
2021/01/12 03:51:16;;;;;;;0.00;0.00;;;;;;;-1.87;76.70;101404.93;1751616;80;21590;-51
2021/01/12 03:53:43;;;;;;;0.10;0.10;;;;;;;-1.87;76.49;101399.57;1751386;81;21175;-51
2021/01/12 03:56:13;;;;;;;0.10;0.10;;;;;;;-1.87;76.41;101402.25;1751886;81;21149;-50
2021/01/12 03:58:40;;;;;;;0.00;0.00;;;;;;;-1.86;76.34;101394.53;1746175;81;21132;-50
2021/01/12 04:01:10;;;;;;;0.10;0.10;;;;;;;-1.86;76.32;101391.84;1746395;81;21156;-51
2021/01/12 04:03:40;;;;;;;0.10;0.10;;;;;;;-1.87;76.32;101383.50;1745880;82;21531;-51
2021/01/12 04:06:13;;;;;;;0.28;0.28;;;;;;;-1.87;76.48;101386.17;1746209;80;21117;-50
2021/01/12 04:08:45;;;;;;;0.20;0.20;;;;;;;-1.87;76.46;101375.97;1746176;82;21165;-50
2021/01/12 04:11:17;;;;;;;0.15;0.13;;;;;;;-1.88;76.44;101383.18;1758645;80;21147;-50
2021/01/12 04:13:44;;;;;;;0.00;0.00;;;;;;;-1.89;76.27;101378.81;1742044;80;21149;-50
2021/01/12 04:16:11;;;;;;;0.00;0.00;;;;;;;-1.89;76.13;101375.30;1746338;82;21156;-50
2021/01/12 04:18:39;;;;;;;0.10;0.10;;;;;;;-1.89;76.10;101379.33;1746352;82;21140;-50
2021/01/12 04:21:06;;;;;;;0.00;0.00;;;;;;;-1.89;76.13;101377.47;1757735;81;21090;-50
2021/01/12 04:23:34;;;;;;;0.10;0.10;;;;;;;-1.91;76.18;101366.09;1755670;81;21146;-50
2021/01/12 04:26:01;;;;;;;0.05;0.05;;;;;;;-1.90;76.21;101373.61;1754158;80;21195;-50
2021/01/12 04:28:28;;;;;;;0.85;0.85;;;;;;;-1.91;76.37;101374.12;1763196;81;21576;-50
2021/01/12 04:30:56;;;;;;;0.05;0.05;;;;;;;-1.93;76.45;101366.77;1733800;82;21484;-50
2021/01/12 04:33:24;;;;;;;0.00;0.00;;;;;;;-1.93;76.58;101367.28;1742085;81;21165;-50
2021/01/12 04:35:51;;;;;;;0.68;0.68;;;;;;;-1.95;76.40;101365.63;1757147;81;21123;-49
2021/01/12 04:38:18;;;;;;;0.65;0.65;;;;;;;-1.94;76.22;101378.50;1757147;81;21127;-49
2021/01/12 04:40:46;;;;;;;0.00;0.00;;;;;;;-1.94;76.01;101383.86;1757034;81;21127;-49
2021/01/12 04:43:13;;;;;;;0.10;0.10;;;;;;;-1.95;76.02;101388.91;1757206;81;21127;-49
2021/01/12 04:45:41;;;;;;;0.00;0.00;;;;;;;-1.96;76.08;101380.00;1757222;81;21597;-50
2021/01/12 04:48:09;;;;;;;0.10;0.10;;;;;;;-1.97;76.16;101393.08;1760980;81;21205;-49
2021/01/12 04:50:36;;;;;;;0.00;0.00;;;;;;;-1.97;76.00;101398.95;1758146;80;21118;-50
2021/01/12 04:53:03;;;;;;;0.10;0.10;;;;;;;-1.99;75.90;101399.63;1757222;81;21139;-50
2021/01/12 04:55:31;;;;;;;0.30;0.30;;;;;;;-1.99;75.74;101407.15;1726002;81;21143;-50
2021/01/12 04:57:58;;;;;;;0.00;0.00;;;;;;;-1.99;75.73;101421.05;1755096;81;21163;-50
2021/01/12 05:00:30;;;;;;;0.00;0.00;;;;;;;-1.99;75.64;101416.52;1738229;81;21512;-49
2021/01/12 05:03:06;;;;;;;0.10;0.10;;;;;;;-1.99;75.67;101415.19;1755731;81;21162;-50
2021/01/12 05:05:38;;;;;;;0.10;0.10;;;;;;;-1.98;75.54;101416.02;1760032;81;21130;-50
2021/01/12 05:08:09;;;;;;;0.10;0.10;;;;;;;-1.99;75.32;101418.38;1787571;80;21098;-50
2021/01/12 05:10:40;;;;;;;0.08;0.08;;;;;;;-1.99;75.24;101422.39;1759409;80;21183;-50
2021/01/12 05:13:11;;;;;;;0.07;0.07;;;;;;;-1.97;75.25;101421.72;1749415;80;21134;-50
2021/01/12 05:15:39;;;;;;;0.75;0.53;;;;;;;-1.99;74.96;101426.41;1755942;80;21434;-50
2021/01/12 05:18:09;;;;;;;0.20;0.20;;;;;;;-1.99;74.60;101430.42;1768852;80;21012;-50
2021/01/12 05:20:44;;;;;;;0.10;0.10;;;;;;;-1.99;74.30;101427.23;1738286;82;21135;-50
2021/01/12 05:23:14;;;;;;;0.13;0.13;;;;;;;-1.97;73.80;101428.41;1738101;82;21181;-50
2021/01/12 05:25:41;;;;;;;0.00;0.00;;;;;;;-1.96;73.23;101422.86;1709160;82;21162;-50
2021/01/12 05:28:11;;;;;;;0.23;0.20;;;;;;;-1.92;72.82;101415.84;1686056;82;21162;-49
2021/01/12 05:30:38;;;;;;;0.08;0.08;;;;;;;-1.91;72.89;101418.84;1738177;82;21473;-49
2021/01/12 05:33:06;;;;;;;0.00;0.00;;;;;;;-1.92;72.89;101412.66;1738081;82;21154;-49
2021/01/12 05:35:40;;;;;;;0.25;0.10;;;;;;;-1.90;72.98;101414.66;1751964;80;21144;-50
2021/01/12 05:38:09;;;;;;;1.15;1.15;;;;;;;-1.90;72.61;101414.66;1756483;81;21131;-50
2021/01/12 05:40:40;;;;;;;0.13;0.13;;;;;;;-1.89;72.46;101414.98;1756475;81;21130;-50
2021/01/12 05:43:12;;;;;;;0.20;0.20;;;;;;;-1.87;72.49;101409.45;1756520;81;21239;-50
2021/01/12 05:45:42;;;;;;;0.17;0.17;;;;;;;-1.87;72.53;101414.81;1756288;81;21419;-50
2021/01/12 05:48:10;;;;;;;0.08;0.08;;;;;;;-1.87;72.45;101410.80;1756502;81;21115;-49
2021/01/12 05:50:39;;;;;;;0.00;0.00;;;;;;;-1.86;72.50;101407.92;1756491;81;21151;-50
2021/01/12 05:53:10;;;;;;;0.10;0.10;;;;;;;-1.87;72.55;101407.61;1775382;80;21458;-50
2021/01/12 05:55:40;;;;;;;0.17;0.17;;;;;;;-1.87;72.50;101407.61;1774802;80;21145;-50
2021/01/12 05:58:17;;;;;;;0.00;0.00;;;;;;;-1.87;72.69;101407.61;1777941;80;21103;-50
2021/01/12 06:00:43;;;;;;;1.50;0.57;;;;;;;-1.88;72.64;101405.95;1781602;80;21147;-50
2021/01/12 06:03:16;;;;;;;0.03;0.03;;;;;;;-1.88;73.04;101397.91;1781725;80;21556;-50
2021/01/12 06:05:44;;;;;;;0.10;0.10;;;;;;;-1.88;73.44;101391.70;1781901;80;21142;-50
2021/01/12 06:08:15;;;;;;;0.00;0.00;;;;;;;-1.89;73.88;101390.87;1732941;81;20996;-50
2021/01/12 06:10:44;;;;;;;0.23;0.23;;;;;;;-1.90;73.88;101391.89;1760617;80;21655;-50
2021/01/12 06:13:16;;;;;;;0.00;0.00;;;;;;;-1.89;73.84;101382.00;1757754;81;21123;-50
2021/01/12 06:15:45;;;;;;;;;;;;;;;-1.89;73.80;101381.49;1742824;79;21115;-50
2021/01/12 06:18:15;;;;;;;0.90;0.88;;;;;;;-1.89;73.56;101376.13;1750041;79;20259;-50
2021/01/12 06:21:14;;;;;;;0.20;0.20;;;;;;;-1.89;73.41;101381.49;1753764;79;21134;-49
2021/01/12 06:23:56;;;;;;;0.20;0.20;;;;;;;-1.89;73.52;101380.15;1716495;82;21439;-49
2021/01/12 06:26:26;;;;;;;0.10;0.10;;;;;;;-1.87;73.98;101382.67;1741531;80;21146;-50
2021/01/12 06:28:53;;;;;;;0.00;0.00;;;;;;;-1.87;74.35;101391.53;1753827;80;21214;-50
2021/01/12 06:31:21;;;;;;;0.10;0.10;;;;;;;-1.86;74.61;101395.87;1777087;80;21154;-50
2021/01/12 06:33:56;;;;;;;0.65;0.20;;;;;;;-1.85;74.43;101401.58;1759952;80;21202;-49
2021/01/12 06:36:25;;;;;;;0.05;0.05;;;;;;;-1.84;74.19;101406.42;1754542;81;21469;-50
2021/01/12 06:38:52;;;;;;;0.05;0.05;;;;;;;-1.84;73.98;101401.89;1733763;81;21135;-50
2021/01/12 06:41:20;;;;;;;4.25;1.37;;;;;;;-1.82;73.98;101405.23;1744069;81;21130;-49
2021/01/12 06:43:49;;;;;;;3.58;0.50;;;;;;;-1.79;73.87;101404.05;1748228;80;21138;-50
2021/01/12 06:46:17;;;;;;;12.68;0.57;;;;;;;-1.80;73.79;101401.89;1752166;81;21143;-50
2021/01/12 06:48:45;;;;;;;0.15;0.15;;;;;;;-1.78;73.79;101394.52;1753421;81;21102;-49
2021/01/12 06:51:13;;;;;;;0.00;0.00;;;;;;;-1.78;73.46;101399.87;1757071;81;21150;-49
2021/01/12 06:53:45;;;;;;;1.07;0.30;;;;;;;-1.77;73.76;101398.84;1759223;81;21146;-50
2021/01/12 06:56:12;;;;;;;0.10;0.10;;;;;;;-1.77;73.37;101404.21;1754982;81;21155;-50
2021/01/12 06:58:46;;;;;;;0.10;0.10;;;;;;;-1.75;73.15;101404.88;1748999;80;21186;-50
2021/01/12 07:01:21;;;;;;;1.42;1.37;;;;;;;-1.73;72.94;101407.39;1754705;81;21130;-50
2021/01/12 07:03:50;;;;;;;0.10;0.10;;;;;;;-1.72;72.75;101404.20;1757393;80;21481;-50
2021/01/12 07:06:25;;;;;;;0.78;0.60;;;;;;;-1.69;72.56;101406.52;1730349;81;21537;-50
2021/01/12 07:08:54;;;;;;;0.10;0.10;;;;;;;-1.68;72.67;101410.86;1759930;81;21161;-50
2021/01/12 07:11:22;;;;;;;0.10;0.10;;;;;;;-1.68;72.78;101405.02;1762871;80;21150;-50
2021/01/12 07:13:51;;;;;;;0.10;0.10;;;;;;;-1.66;72.60;101404.82;1745583;80;21165;-50
2021/01/12 07:16:19;;;;;;;1.85;0.75;;;;;;;-1.64;72.55;101404.15;1754461;80;21030;-50
2021/01/12 07:18:59;;;;;;;0.10;0.10;;;;;;;-1.63;72.31;101408.48;1754372;81;21115;-49
2021/01/12 07:21:30;;;;;;;0.08;0.08;;;;;;;-1.61;72.14;101407.81;1700518;82;21540;-50
2021/01/12 07:24:05;;;;;;;0.85;0.55;;;;;;;-1.60;72.29;101405.48;1735453;81;21162;-49
2021/01/12 07:26:33;;;;;;;;;;;;;;;-1.59;72.31;101401.26;1746565;81;21191;-49
2021/01/12 07:29:04;;;;;;;0.45;0.45;;;;;;;-1.57;72.36;101402.44;1781947;80;20293;-50
2021/01/12 07:31:32;;;;;;;0.10;0.10;;;;;;;-1.56;72.32;101407.63;1785180;79;21402;-50
2021/01/12 07:34:00;;;;;;;0.15;0.15;;;;;;;-1.55;72.74;101411.14;1770694;80;21166;-50
2021/01/12 07:36:28;;;;;;;0.70;0.70;;;;;;;-1.53;72.85;101407.78;1786140;80;21118;-50
2021/01/12 07:38:56;;;;;;;0.10;0.10;;;;;;;-1.52;73.20;101409.44;1742682;80;21218;-49
2021/01/12 07:41:24;;;;;;;0.10;0.10;;;;;;;-1.50;72.61;101407.42;1761255;79;21138;-50
2021/01/12 07:43:52;;;;;;;0.20;0.20;;;;;;;-1.49;72.49;101405.06;1764329;80;21182;-50
2021/01/12 07:46:24;;;;;;;0.00;0.00;;;;;;;-1.46;72.60;101399.34;1753487;80;21158;-50
2021/01/12 07:48:54;;;;;;;0.17;0.17;;;;;;;-1.44;72.74;101393.30;1757193;81;21167;-50
2021/01/12 07:51:27;;;;;;;0.60;0.25;;;;;;;-1.40;72.59;101393.28;1711848;79;21134;-50
2021/01/12 07:53:56;;;;;;;0.25;0.25;;;;;;;-1.38;72.58;101387.24;1737639;81;21761;-51
2021/01/12 07:56:24;;;;;;;0.10;0.10;;;;;;;-1.37;72.54;101386.22;1743864;80;21119;-50
2021/01/12 07:58:55;;;;;;;0.30;0.30;;;;;;;-1.34;73.01;101381.83;1785147;79;21122;-50
2021/01/12 08:01:25;;;;;;;0.25;0.25;;;;;;;-1.31;73.53;101387.38;1746302;81;21201;-50
2021/01/12 08:03:54;;;;;;;0.10;0.10;;;;;;;-1.29;73.29;101381.30;1747230;80;21467;-50
2021/01/12 08:06:24;;;;;;;0.03;0.03;;;;;;;-1.30;73.40;101381.81;1755138;80;21127;-50
2021/01/12 08:08:57;;;;;;;0.35;0.35;;;;;;;-1.28;72.99;101374.11;1739141;81;21431;-50
2021/01/12 08:11:25;;;;;;;0.45;0.45;;;;;;;-1.27;73.05;101378.45;1797247;79;27587;-50
2021/01/12 08:14:06;;;;;;;0.45;0.45;;;;;;;-1.28;73.26;101357.52;1745611;82;21189;-50
2021/01/12 08:16:33;;;;;;;0.30;0.30;;;;;;;-1.27;73.31;101349.78;1771827;80;21142;-50
2021/01/12 08:19:01;;;;;;;0.00;0.00;;;;;;;-1.24;73.43;101351.27;1772633;80;21150;-50
2021/01/12 08:21:40;;;;;;;0.10;0.10;;;;;;;-1.22;73.09;101354.61;1773736;79;21125;-51
2021/01/12 08:24:08;;;;;;;0.17;0.17;;;;;;;-1.19;73.19;101350.22;1773429;79;21162;-50
2021/01/12 08:26:44;;;;;;;0.13;0.13;;;;;;;-1.14;73.89;101333.08;1748506;80;21169;-50
2021/01/12 08:29:13;;;;;;;0.53;0.37;;;;;;;-1.07;74.12;101330.00;1759862;80;21604;-50
2021/01/12 08:31:49;;;;;;;1.12;0.40;;;;;;;-0.97;73.95;101321.19;1764588;80;21438;-50
2021/01/12 08:34:23;;;;;;;3.00;0.80;;;;;;;-0.88;73.81;101321.44;1767093;80;21122;-50
2021/01/12 08:36:51;;;;;;;1.40;0.30;;;;;;;-0.78;73.60;101324.38;1741774;80;21145;-50
2021/01/12 08:39:23;;;;;;;0.30;0.30;;;;;;;-0.67;73.38;101326.59;1743637;81;21516;-50
2021/01/12 08:41:51;;;;;;;0.82;0.82;;;;;;;-0.58;73.08;101330.04;1787830;79;21105;-50
2021/01/12 08:44:19;;;;;;;0.00;0.00;;;;;;;-0.50;72.76;101336.66;1793108;79;21129;-50
2021/01/12 08:46:48;;;;;;;0.33;0.30;;;;;;;-0.42;72.81;101329.01;1783364;79;21126;-50
2021/01/12 08:49:15;;;;;;;0.50;0.50;;;;;;;-0.38;72.32;101319.58;1763408;79;21185;-50
2021/01/12 08:51:43;;;;;;;3.35;1.02;;;;;;;-0.36;71.50;101323.74;1769913;79;21407;-51
2021/01/12 08:54:14;;;;;;;0.37;0.37;;;;;;;-0.40;71.55;101325.64;1789859;79;21127;-51
2021/01/12 08:56:42;;;;;;;0.60;0.60;;;;;;;-0.42;71.42;101326.33;1785345;79;21497;-50
2021/01/12 08:59:10;;;;;;;0.10;0.10;;;;;;;-0.45;71.46;101328.87;1792520;79;21531;-51
2021/01/12 09:01:38;;;;;;;2.08;0.47;;;;;;;-0.49;70.40;101325.73;1786989;79;21609;-50
2021/01/12 09:04:09;;;;;;;1.10;0.70;;;;;;;-0.53;70.25;101320.41;1786494;79;21617;-50
2021/01/12 09:06:37;;;;;;;0.17;0.17;;;;;;;-0.57;69.37;101319.13;1793227;79;21133;-51
2021/01/12 09:09:11;;;;;;;0.42;0.42;;;;;;;-0.64;69.05;101312.83;1790155;79;21127;-51
2021/01/12 09:11:47;;;;;;;3.10;0.65;;;;;;;-0.68;68.68;101303.47;1771201;79;21181;-51
2021/01/12 09:14:19;;;;;;;0.10;0.10;;;;;;;-0.74;68.58;101296.13;1789411;79;21174;-51
2021/01/12 09:16:46;;;;;;;0.23;0.23;;;;;;;-0.79;67.75;101287.80;1790021;79;21139;-50
2021/01/12 09:19:17;;;;;;;0.75;0.75;;;;;;;-0.85;67.51;101286.70;1784882;79;21121;-50
2021/01/12 09:21:46;;;;;;;0.93;0.93;;;;;;;-0.89;67.50;101280.87;1791231;79;21157;-50
2021/01/12 09:24:19;;;;;;;3.25;0.95;;;;;;;-0.91;67.67;101284.25;1775116;79;21114;-51
2021/01/12 09:26:48;;;;;;;0.05;0.05;;;;;;;-0.91;68.58;101285.59;1796233;79;21569;-50
2021/01/12 09:29:16;;;;;;;1.55;0.65;;;;;;;-0.94;68.09;101294.02;1795552;79;21137;-50
2021/01/12 09:31:46;;;;;;;0.28;0.28;;;;;;;-0.95;68.77;101296.35;1777935;79;21644;-50
2021/01/12 09:34:21;;;;;;;0.10;0.10;;;;;;;-0.97;67.79;101291.67;1767243;80;21550;-50
2021/01/12 09:36:50;;;;;;;0.20;0.20;;;;;;;-0.98;67.87;101281.97;1765183;81;21142;-50
2021/01/12 09:39:17;;;;;;;2.20;1.17;;;;;;;-1.01;67.65;101279.66;1766353;81;21190;-50
2021/01/12 09:41:50;;;;;;;0.65;0.65;;;;;;;-1.03;67.06;101279.00;1777861;80;21136;-50
2021/01/12 09:44:19;;;;;;;0.95;0.95;;;;;;;-1.03;66.82;101277.66;1753362;81;21528;-50
2021/01/12 09:46:47;;;;;;;0.00;0.00;;;;;;;-1.01;66.89;101281.00;1784152;80;21114;-50
2021/01/12 09:49:15;;;;;;;0.55;0.55;;;;;;;-0.99;67.28;101276.77;1779171;79;21508;-50
2021/01/12 09:51:43;;;;;;;0.20;0.20;;;;;;;-0.95;67.08;101261.98;1787137;80;21130;-50
2021/01/12 09:54:11;;;;;;;2.08;1.65;;;;;;;-0.91;67.77;101253.39;1787230;80;21577;-50
2021/01/12 09:56:38;;;;;;;1.35;0.65;;;;;;;-0.88;67.13;101251.67;1770944;80;21092;-50
2021/01/12 09:59:05;;;;;;;0.05;0.05;;;;;;;-0.82;67.04;101239.36;1737398;80;21423;-51
2021/01/12 10:01:33;;;;;;;0.10;0.10;;;;;;;-0.76;67.39;101236.47;1748844;81;21134;-50
2021/01/12 10:04:00;;;;;;;0.10;0.10;;;;;;;-0.72;68.53;101231.03;1736757;81;21747;-51
2021/01/12 10:06:30;;;;;;;0.05;0.05;;;;;;;-0.67;67.58;101219.22;1779426;80;21162;-51
2021/01/12 10:08:57;;;;;;;0.00;0.00;;;;;;;-0.61;66.75;101227.89;1781050;79;21230;-51
2021/01/12 10:11:28;;;;;;;0.17;0.17;;;;;;;-0.56;66.56;101217.94;1773830;80;21130;-51
2021/01/12 10:13:55;;;;;;;0.42;0.42;;;;;;;-0.52;66.24;101199.92;1779747;79;21538;-50
2021/01/12 10:16:25;;;;;;;0.10;0.10;;;;;;;-0.48;65.89;101182.91;1758280;80;21452;-50
2021/01/12 10:18:54;;;;;;;0.25;0.25;;;;;;;-0.42;66.12;101179.48;1781973;80;21149;-50
2021/01/12 10:21:22;;;;;;;1.15;1.15;;;;;;;-0.37;66.20;101178.89;1782176;80;21120;-50
2021/01/12 10:23:49;;;;;;;0.10;0.10;;;;;;;-0.32;66.15;101181.84;1782339;80;21140;-51
2021/01/12 10:26:18;;;;;;;1.65;0.35;;;;;;;-0.29;66.68;101182.83;1781736;79;21137;-50
2021/01/12 10:28:47;;;;;;;2.40;2.20;;;;;;;-0.21;66.82;101180.02;1754971;80;21146;-50
2021/01/12 10:31:15;;;;;;;0.68;0.68;;;;;;;-0.16;66.15;101166.02;1751492;81;21158;-51
2021/01/12 10:33:44;;;;;;;0.20;0.20;;;;;;;-0.12;65.87;101164.10;1754460;80;21212;-51
2021/01/12 10:36:13;;;;;;;0.00;0.00;;;;;;;-0.09;65.73;101162.37;1760155;80;21131;-50
2021/01/12 10:38:42;;;;;;;0.20;0.20;;;;;;;-0.06;65.30;101152.58;1761858;79;21409;-50
2021/01/12 10:41:11;;;;;;;0.30;0.30;;;;;;;-0.06;64.82;101145.03;1781189;80;21165;-50
2021/01/12 10:43:39;;;;;;;0.10;0.10;;;;;;;-0.05;64.75;101135.45;1782519;80;21139;-50
2021/01/12 10:46:07;;;;;;;0.47;0.47;;;;;;;-0.03;65.03;101117.77;1781416;80;21608;-50
2021/01/12 10:48:34;;;;;;;0.60;0.45;;;;;;;-0.01;64.61;101119.23;1774079;80;21156;-51
2021/01/12 10:51:02;;;;;;;0.30;0.25;;;;;;;0.03;65.68;101116.19;1751552;80;21139;-50
2021/01/12 10:53:31;;;;;;;0.90;0.90;;;;;;;0.05;65.50;101110.08;1781496;80;21185;-51
2021/01/12 10:56:01;;;;;;;0.62;0.40;;;;;;;0.08;64.92;101104.34;1765993;80;21569;-50
2021/01/12 10:58:29;;;;;;;0.65;0.65;;;;;;;0.07;65.04;101113.41;1757240;80;21119;-50
2021/01/12 11:00:57;;;;;;;0.20;0.20;;;;;;;0.08;66.33;101104.34;1753745;80;21513;-51
2021/01/12 11:03:27;;;;;;;0.33;0.30;;;;;;;0.08;66.22;101092.25;1772686;79;21507;-51
2021/01/12 11:05:54;;;;;;;0.08;0.08;;;;;;;0.07;65.46;101103.48;1769167;80;21155;-50
2021/01/12 11:08:22;;;;;;;0.00;0.00;;;;;;;0.07;66.19;101093.25;1767677;80;21566;-50
2021/01/12 11:10:53;;;;;;;0.35;0.35;;;;;;;0.08;64.83;101090.91;1771342;80;21667;-51
2021/01/12 11:13:20;;;;;;;0.10;0.10;;;;;;;0.05;64.54;101110.08;1774052;80;20991;-51
2021/01/12 11:15:48;;;;;;;3.47;0.33;;;;;;;0.01;64.08;101133.01;1759856;80;21576;-51
2021/01/12 11:18:15;;;;;;;0.55;0.55;;;;;;;0.01;64.52;101161.23;1757777;80;21173;-50
2021/01/12 11:20:44;;;;;;;0.15;0.15;;;;;;;0.04;63.94;101152.77;1778558;80;21139;-51
2021/01/12 11:23:12;;;;;;;0.30;0.30;;;;;;;0.03;64.08;101136.34;1782236;80;21137;-50
2021/01/12 11:25:40;;;;;;;0.85;0.85;;;;;;;0.04;65.14;101124.55;1775684;80;21429;-50
2021/01/12 11:28:08;;;;;;;1.65;1.45;;;;;;;0.06;65.87;101095.64;1768919;80;21126;-50
2021/01/12 11:30:35;;;;;;;0.42;0.42;;;;;;;0.09;66.47;101083.15;1775492;80;21181;-50
2021/01/12 11:33:08;;;;;;;0.85;0.85;;;;;;;0.10;66.58;101087.00;1771131;80;21134;-50
2021/01/12 11:35:36;;;;;;;0.25;0.25;;;;;;;0.10;66.74;101102.27;1745840;81;21276;-51
2021/01/12 11:38:04;;;;;;;0.25;0.25;;;;;;;0.11;67.08;101085.95;1763154;79;21178;-51